Terminal Aerodrome Forecast
Issued by NWS Wilmington, OH

Current Version | Previous Version | Text Only | Print | Product List | Glossary Off
Versions: 1 2 3 4 5 6 7 8 9 10 11 12 13 14 15 16 17 18 19 20 21 22 23 24 25

000
FTUS41 KILN 310540
TAFCVG
TAF
KCVG 310540Z 3106/0112 19003KT P6SM SCT150
      TEMPO 3108/3112 00000KT 4SM BR SKC
     FM311300 23006KT P6SM FEW025 SCT150
     FM311800 24006KT P6SM VCSH BKN035
     FM010100 00000KT P6SM SCT250=

USA.gov is the U.S. government's official web portal to all federal, state and local government web resources and services.